Tuesday, November 25, 2014
00:35 UTC
  |  Log In   |  Register Free
Airport Search:

Carmi Municipal Airport
(KCUL)

Carmi Municipal Airport Diagram
No Airport Diagram Available

FAA data valid effective November 13, 2014 - January 08, 2015 (unless otherwise noted).

 
 
 
 
 
 
 
 
 
 
 
 
 
 

Current Aviation Weather for Carmi Municipal Airport (KCUL)

The most recent METAR observation for KCUL was updated at: 0018
METAR Summary (Translated METAR)
KCUL
242355Z AUTO 29008KT 10SM BKN060 06/02 A2990 RMK AO2 T00580018 10093 20055
KFWC
242355Z AUTO 00000KT 10SM SCT060 04/M01 A2989 RMK AO1 T00431011 10072 20043
(22.1 nm NW from KCUL)
KHSB
242355Z AUTO 32008KT 10SM OVC070 07/00 A2992 RMK AO2 T00711001 10101 20070
(26.2 nm SW from KCUL)
TAF
No TAF information found within 50 nm of KCUL
  Airport Weather Conditions for KCUL

 Current Weather at CUL
42° F
Mostly Cloudy
Northwest winds at 8.1 mph
CUL NOAA Radar

Pressure: 29.89 in
Humidity: 78%
Wind: Northwest at 8.1 MPH (7 KT)
Dew Point: 35.6°F
Visibility: 10.00 mi


Airport Weather Forecast for KCUL

Translated METAR and TAF for KCUL
Translated METAR for KCUL (0030 UTC 25 November 2014)
found at http://aviationweather.gov/adds/metars/
 
METAR text: KCUL 250015Z AUTO 29007KT 10SM BKN070 06/02 A2992 RMK AO2 T00580020
Conditions at: KCUL (CARMI MUNI , IL, US) observed 0015 UTC 25 November 2014
Temperature: 5.8°C (42°F)
Dewpoint: 2.0°C (36°F) [RH = 77%]
Pressure (altimeter): 29.92 inches Hg (1013.3 mb)
Winds: from the WNW (290 degrees) at 8 MPH (7 knots; 3.6 m/s)
Visibility: 10 or more miles (16+ km)
Ceiling: 7000 feet AGL
Clouds: broken clouds at 7000 feet AGL
Weather: automated observation with no human augmentation;
there may or may not be significant weather present at this time
Translated TAF for KCUL

There is no translated TAF available for this airport

Find All Airport Services Find A Hotel Find A Rental Car Find A Golf Course Find A Restaurant $100 Hamburger



FBO's on the Field
FBO Company Facility Photos Services Transportation Aviation Fuel Prices: Prices include tax
Catering Weather Repair Courtesy Rental Type 100LL JetA JetA+ MOGAS 8087
 
Carmi Municipal Airport

This FBO has not yet been rated
FS:Shell
Last Updated: Nov-18
Login to update fuel prices
SS:
Contact Carmi Municipal AirportMore FBO Information
 
Carmi Municipal Airport

This FBO has not yet been rated
FS:Shell
Last Updated: Nov-14
Login to update fuel prices
SS:
Contact Carmi Municipal AirportMore FBO Information
 
Add another FBO Facility Photos Catering Weather Repair Courtesy Rental Type 100LL JetA JetA+ MOGAS 8087
Services Transportation Aviation Fuel Prices: Prices include tax


model-print
model-print
model-print
model-print